Spring Mountain Youth Camp, Nevada Weather observations

Data are for 60 minute period ending at time listed.
 Day   Time   Solar   Ave.   Ave.  Ave.  Vector  Max.   Baro.   Total    
  of    of     Rad.   Air    Rel.  Wind   Wind   Wind  Press.  Precip.   
Year   Day            Temp.  Hum.  Speed  Dir.   Gust                    
2014   (PST)  Kw/m2    F      %     mph   deg.    mph    mb.     in.     
-------------------------------------------------------------------------
 244   22:00   0.00   63.2    26    2.8   111     5.3   793.5    0.00 
 244   23:00   0.00   63.3    25    2.2    94     5.8   793.4    0.00 
 245    0:00   0.00   63.8    25    4.3   120     7.1   793.4    0.00 
 245    1:00   0.00   63.5    25    4.1   130     9.4   793.2    0.00 
 245    2:00   0.00   62.2    26    4.9   152     9.2   793.1    0.00 
 245    3:00   0.00   61.6    28    6.2   152     9.4   793.1    0.00 
 245    4:00   0.00   61.4    28    8.0   154    11.3   793.1    0.00 
 245    5:00   0.00   61.1    28    7.8   150    11.2   793.2    0.00 
 245    6:00   0.01   60.4    28    7.1   152    11.1   793.3    0.00 
 245    7:00   0.05   62.1    27    4.9   150     8.2   793.5    0.00 
 245    8:00   0.42   66.5    23    6.4   149    14.5   793.6    0.00 
 245    9:00   0.64   69.1    21    7.9   161    14.1   793.6    0.00 
 245   10:00   0.80   71.5    20    6.9   165    17.7   793.5    0.00 
 245   11:00   0.90   72.4    20    6.9   160    16.8   793.4    0.00 
 245   12:00   0.95   73.2    18    9.2   160    19.3   793.2    0.00 
 245   13:00   0.94   73.6    18    7.9   138    23.7   792.9    0.00 
 245   14:00   0.87   76.0    13    9.7   166    29.4   792.5    0.00 
 245   15:00   0.74   75.2    14   15.6   171    28.9   792.1    0.00 
 245   16:00   0.56   73.4    15   14.2   169    27.2   791.9    0.00 
 245   17:00   0.34   71.5    18   11.3   174    20.8   791.9    0.00 
 245   18:00   0.10   67.9    18    9.3   166    17.8   791.8    0.00 
 245   19:00   0.00   63.7    19    4.3   147     8.3   791.7    0.00 
 245   20:00   0.00   64.1    15    1.7   171     7.1   791.8    0.00 
 245   21:00   0.00   64.6    14    1.3   267     5.1   791.8    0.00 

Return to Spring Mountain Youth Camp graphs page.


Western Regional Climate Center,wrcc@dri.edu